Time;durP1;ratioP1;P1;durP2;ratioP2;P2;SDS_P1;SDS_P2;PMS_P1;PMS_P2;Temp;Humidity;BMP_temperature;BMP_pressure;BME280_temperature;BME280_humidity;BME280_pressure;Samples;Min_cycle;Max_cycle;Signal;HPM_P1;HPM_P2
2021/12/30 00:01:21;;;;;;;5.90;5.30;;;;;;;6.82;81.47;93761.02;793975;74;31981;-79
2021/12/30 00:16:09;;;;;;;6.10;5.50;;;;;;;6.74;81.03;93761.13;834108;71;29224;-81
2021/12/30 00:31:15;;;;;;;5.60;5.10;;;;;;;6.77;80.89;93776.22;827269;71;31758;-79
2021/12/30 00:46:09;;;;;;;4.72;4.28;;;;;;;6.76;80.61;93785.08;828161;71;28633;-80
2021/12/30 01:01:28;;;;;;;3.15;2.95;;;;;;;6.71;80.26;93791.67;824035;71;31921;-85
2021/12/30 01:16:24;;;;;;;3.45;3.15;;;;;;;6.51;80.18;93787.98;828211;71;28620;-80
2021/12/30 01:31:10;;;;;;;3.42;3.22;;;;;;;6.61;80.16;93815.27;828070;71;29752;-79
2021/12/30 01:46:18;;;;;;;3.25;2.95;;;;;;;6.59;80.23;93814.23;828030;71;30295;-81
2021/12/30 01:47:24;;;;;;;3.20;2.90;;;;;;;6.56;80.37;93823.12;808564;73;26297;-80
2021/12/30 02:01:15;;;;;;;3.00;2.77;;;;;;;6.67;80.30;93814.66;828096;71;29693;-80
2021/12/30 02:16:21;;;;;;;3.35;3.05;;;;;;;6.69;80.20;93821.16;833827;71;32875;-81
2021/12/30 02:31:40;;;;;;;2.60;2.40;;;;;;;6.71;80.08;93832.59;827232;71;32679;-81
2021/12/30 02:46:28;;;;;;;3.50;3.20;;;;;;;6.68;79.85;93835.23;828140;71;30466;-78
2021/12/30 03:01:37;;;;;;;3.25;2.92;;;;;;;6.58;79.76;93860.88;828185;71;29677;-79
2021/12/30 03:16:29;;;;;;;3.60;3.30;;;;;;;6.30;80.02;93828.61;830544;71;29645;-83
2021/12/30 03:31:21;;;;;;;3.40;3.10;;;;;;;6.60;80.12;93887.98;827965;71;30317;-78
2021/12/30 03:46:54;;;;;;;3.60;3.30;;;;;;;6.62;80.06;93891.85;815421;72;32806;-80
2021/12/30 04:01:22;;;;;;;4.08;3.67;;;;;;;6.66;79.57;93906.95;827290;71;32713;-79
2021/12/30 04:16:12;;;;;;;4.08;3.67;;;;;;;6.66;79.62;93931.72;828141;71;29660;-80
2021/12/30 04:31:09;;;;;;;3.85;3.55;;;;;;;6.66;79.56;93961.69;828167;71;29732;-80
2021/12/30 04:46:33;;;;;;;4.00;3.60;;;;;;;6.67;79.56;93973.16;833890;71;33302;-79
2021/12/30 05:01:28;;;;;;;4.00;3.70;;;;;;;6.60;78.96;93996.91;833698;71;32751;-80
2021/12/30 05:16:26;;;;;;;4.62;4.17;;;;;;;6.55;78.71;94009.20;827200;71;33233;-81
2021/12/30 05:31:24;;;;;;;4.80;4.40;;;;;;;6.50;78.80;94035.33;833732;71;32716;-79
2021/12/30 05:46:14;;;;;;;4.75;4.35;;;;;;;6.46;78.71;94062.45;833708;71;29768;-76
2021/12/30 06:01:12;;;;;;;4.90;4.50;;;;;;;6.39;78.79;94071.11;827910;71;29753;-77
2021/12/30 06:16:15;;;;;;;4.67;4.30;;;;;;;6.37;79.07;94101.34;814988;70;32700;-76
2021/12/30 06:31:23;;;;;;;7.00;5.72;;;;;;;6.38;79.23;94138.59;833812;71;29774;-76
2021/12/30 06:46:27;;;;;;;6.55;5.62;;;;;;;6.35;79.12;94173.79;828537;71;33244;-78
2021/12/30 07:01:18;;;;;;;3.85;3.55;;;;;;;6.35;76.56;94198.55;828449;71;29736;-78
2021/12/30 07:16:26;;;;;;;2.98;2.77;;;;;;;5.71;74.62;94228.66;827162;71;32710;-78
2021/12/30 07:31:14;;;;;;;3.15;2.80;;;;;;;5.69;74.82;94256.00;824784;71;29586;-76
2021/12/30 07:46:12;;;;;;;4.22;3.80;;;;;;;5.41;74.57;94278.90;823653;71;29796;-80
2021/12/30 08:01:26;;;;;;;5.10;4.60;;;;;;;5.67;73.65;94294.52;827594;70;32746;-82
2021/12/30 08:16:37;;;;;;;5.80;3.42;;;;;;;4.59;73.73;94263.95;825030;70;29771;-83
2021/12/30 08:31:21;;;;;;;3.80;3.40;;;;;;;4.80;75.24;94332.36;817761;71;29693;-80
2021/12/30 08:46:26;;;;;;;3.42;3.10;;;;;;;5.00;74.51;94363.36;823610;70;33275;-81
2021/12/30 09:01:20;;;;;;;4.25;3.95;;;;;;;4.94;74.40;94379.45;824613;70;30297;-84
2021/12/30 09:16:29;;;;;;;;;;;;;;;;;;;;;
2021/12/30 09:31:15;;;;;;;5.95;4.75;;;;;;;5.23;73.35;94388.12;827528;71;30357;-82
2021/12/30 09:46:17;;;;;;;3.33;3.00;;;;;;;5.16;71.52;94407.11;825960;70;33230;-84
2021/12/30 10:01:24;;;;;;;3.25;2.95;;;;;;;4.68;72.14;94425.87;827940;71;30318;-80
2021/12/30 10:16:29;;;;;;;3.02;2.72;;;;;;;4.76;73.25;94417.59;820306;71;32804;-81
2021/12/30 10:31:30;;;;;;;4.80;3.70;;;;;;;5.14;72.05;94417.75;834127;71;32784;-82
2021/12/30 10:46:26;;;;;;;4.17;3.50;;;;;;;5.39;70.61;94437.08;827434;71;32626;-81
2021/12/30 11:01:43;;;;;;;4.67;4.28;;;;;;;5.44;70.01;94435.03;834411;71;32750;-82
2021/12/30 11:16:24;;;;;;;3.67;3.00;;;;;;;5.78;69.03;94450.98;827221;71;32711;-78
2021/12/30 11:31:24;;;;;;;5.92;4.83;;;;;;;6.25;67.94;94488.30;822453;71;32878;-79
2021/12/30 12:16:55;;;;;;;3.25;2.95;;;;;;;6.80;64.91;94480.95;819110;71;30351;-79
2021/12/30 12:31:22;;;;;;;2.83;2.62;;;;;;;6.85;64.13;94481.45;827172;71;29830;-81
2021/12/30 12:46:45;;;;;;;3.70;3.40;;;;;;;6.86;64.68;94505.73;822057;71;32840;-80
2021/12/30 13:01:26;;;;;;;4.17;3.62;;;;;;;6.83;65.15;94505.71;821680;71;33353;-80
2021/12/30 13:16:34;;;;;;;4.97;4.22;;;;;;;6.78;65.43;94532.59;818869;71;30388;-78
2021/12/30 13:31:35;;;;;;;4.75;3.77;;;;;;;6.83;65.09;94543.52;818983;71;31757;-79
2021/12/30 13:46:31;;;;;;;2.80;2.60;;;;;;;7.06;64.88;94559.17;824251;70;31775;-81
2021/12/30 14:31:28;;;;;;;3.27;2.42;;;;;;;7.49;65.12;94583.61;833999;71;30315;-78
2021/12/30 15:31:15;;;;;;;13.50;9.25;;;;;;;7.21;67.26;94649.15;827804;71;29422;-84
2021/12/30 15:46:26;;;;;;;4.53;3.95;;;;;;;7.11;67.89;94672.64;828846;71;30943;-85
2021/12/30 16:02:10;;;;;;;;;;;;;;;;;;;;;
2021/12/30 16:16:19;;;;;;;5.67;4.78;;;;;;;7.11;69.53;94724.05;833997;71;29322;-86
2021/12/30 16:31:17;;;;;;;7.08;5.80;;;;;;;7.13;69.58;94730.56;828136;71;29295;-85
2021/12/30 16:46:16;;;;;;;7.53;6.15;;;;;;;7.08;69.59;94746.75;828338;71;29213;-84
2021/12/30 17:01:19;;;;;;;19.15;13.70;;;;;;;7.05;69.76;94755.86;826191;71;31754;-84
2021/12/30 17:16:19;;;;;;;56.40;34.58;;;;;;;6.98;69.99;94770.46;833831;71;32398;-85
2021/12/30 17:31:11;;;;;;;46.35;30.02;;;;;;;6.83;70.50;94796.49;828355;71;30615;-84
2021/12/30 17:46:23;;;;;;;26.45;17.27;;;;;;;6.71;71.17;94828.02;834459;71;29259;-80
2021/12/30 18:01:20;;;;;;;16.42;11.25;;;;;;;6.55;73.51;94849.33;828601;71;28756;-83
2021/12/30 18:16:18;;;;;;;13.78;10.50;;;;;;;6.49;75.98;94865.17;828142;71;29360;-83
2021/12/30 18:31:22;;;;;;;11.22;10.03;;;;;;;6.42;76.76;94876.60;834563;71;31827;-86
2021/12/30 18:46:21;;;;;;;12.30;9.78;;;;;;;6.35;77.20;94880.48;835652;70;31741;-86
2021/12/30 19:01:17;;;;;;;9.90;8.48;;;;;;;6.44;77.49;94891.22;834134;71;32177;-87
2021/12/30 19:16:10;;;;;;;9.98;7.80;;;;;;;6.42;77.28;94902.66;794081;74;28785;-84
2021/12/30 19:31:31;;;;;;;8.93;7.80;;;;;;;6.40;77.54;94928.19;834073;71;32781;-85
2021/12/30 19:46:35;;;;;;;9.78;8.78;;;;;;;6.32;77.99;94933.09;800651;74;31991;-86
2021/12/30 20:01:25;;;;;;;12.05;8.60;;;;;;;6.23;78.14;94934.08;819314;71;31758;-82
2021/12/30 20:16:17;;;;;;;9.20;8.23;;;;;;;6.11;78.54;94932.94;828056;71;29716;-84
2021/12/30 20:31:16;;;;;;;10.05;8.35;;;;;;;5.99;78.79;94895.33;827397;70;29725;-85
2021/12/30 20:46:15;;;;;;;9.48;8.48;;;;;;;6.11;78.84;94902.98;824170;71;30335;-83
2021/12/30 21:01:20;;;;;;;8.73;7.78;;;;;;;6.35;78.62;94946.94;834288;71;32697;-86
2021/12/30 21:31:25;;;;;;;8.58;6.95;;;;;;;6.39;78.15;94951.92;811741;71;29750;-84
2021/12/30 21:46:34;;;;;;;10.20;8.15;;;;;;;6.30;78.67;94964.60;821255;71;32837;-85
2021/12/30 22:01:26;;;;;;;11.03;8.03;;;;;;;6.27;78.83;94952.09;821729;71;33382;-85
2021/12/30 22:16:20;;;;;;;10.50;8.45;;;;;;;6.26;78.87;94973.17;834641;71;32770;-84
2021/12/30 22:31:15;;;;;;;11.33;8.95;;;;;;;6.22;79.03;94988.51;828492;71;30797;-83
2021/12/30 22:46:31;;;;;;;10.50;8.35;;;;;;;6.22;79.32;94991.11;824370;71;32793;-82
2021/12/30 23:01:14;;;;;;;10.35;8.45;;;;;;;6.18;79.38;94983.03;828081;71;30858;-85
2021/12/30 23:16:25;;;;;;;12.30;8.88;;;;;;;6.20;79.67;94978.85;828950;71;30476;-84
2021/12/30 23:31:30;;;;;;;13.45;9.10;;;;;;;6.24;79.62;94976.55;821466;71;32931;-83
2021/12/30 23:46:27;;;;;;;12.03;8.53;;;;;;;6.24;79.29;94978.63;787772;74;33002;-83
